TAM9664 SBGO-SBSV
Flight info
| Callsign | TAM9664 |
|---|---|
| Flight time | N/A |
| Altitude | 37000 |
| Route | LODUV DCT UGTAK UZ19 DOTBI |
| Aircraft | A320/M-SDE3FGHIRWY/LB1 |
Departure
| Time | 2026-04-25 17:15 |
|---|---|
| Airport | Santa Genoveva International Airport (SBGO) |
Arrival
| Time | N/A |
|---|---|
| Airport | Deputado Luiz Eduardo Magalhães International Airport (SBSV) |
| Time | Latitude | Longitude | Altitude | Speed | Heading |
|---|---|---|---|---|---|
| 2026-04-25 16:41 | -16.62974 | -49.21528 | 2466 ft | 0 kts | 64° |
| 2026-04-25 17:03 | -16.62988 | -49.21559 | 2462 ft | 3 kts | 56° |
| 2026-04-25 17:03 | -16.63004 | -49.21577 | 2462 ft | 3 kts | 30° |
| 2026-04-25 17:03 | -16.63023 | -49.21583 | 2462 ft | 3 kts | 340° |
| 2026-04-25 17:03 | -16.63031 | -49.21579 | 2466 ft | 1 kts | 331° |
| 2026-04-25 17:04 | -16.63033 | -49.21578 | 2466 ft | 0 kts | 331° |
| 2026-04-25 17:08 | -16.63031 | -49.21580 | 2466 ft | 1 kts | 331° |
| 2026-04-25 17:08 | -16.63015 | -49.21589 | 2462 ft | 4 kts | 331° |
| 2026-04-25 17:09 | -16.62994 | -49.21601 | 2462 ft | 6 kts | 331° |
| 2026-04-25 17:09 | -16.62949 | -49.21621 | 2465 ft | 9 kts | 340° |
| 2026-04-25 17:09 | -16.62920 | -49.21681 | 2463 ft | 12 kts | 265° |
| 2026-04-25 17:09 | -16.62944 | -49.21791 | 2454 ft | 18 kts | 257° |
| 2026-04-25 17:10 | -16.62975 | -49.21942 | 2453 ft | 24 kts | 259° |
| 2026-04-25 17:10 | -16.62984 | -49.22119 | 2445 ft | 24 kts | 280° |
| 2026-04-25 17:10 | -16.62914 | -49.22269 | 2450 ft | 22 kts | 300° |
| 2026-04-25 17:10 | -16.62839 | -49.22403 | 2463 ft | 21 kts | 300° |
| 2026-04-25 17:11 | -16.62767 | -49.22529 | 2458 ft | 20 kts | 301° |
| 2026-04-25 17:11 | -16.62695 | -49.22659 | 2462 ft | 21 kts | 301° |
| 2026-04-25 17:11 | -16.62622 | -49.22790 | 2462 ft | 22 kts | 300° |
| 2026-04-25 17:11 | -16.62588 | -49.22917 | 2462 ft | 17 kts | 229° |
| 2026-04-25 17:12 | -16.62613 | -49.22938 | 2455 ft | 1 kts | 213° |
| 2026-04-25 17:12 | -16.62615 | -49.22940 | 2458 ft | 1 kts | 213° |
| 2026-04-25 17:12 | -16.62629 | -49.22949 | 2462 ft | 4 kts | 213° |
| 2026-04-25 17:13 | -16.62656 | -49.22967 | 2457 ft | 6 kts | 212° |
| 2026-04-25 17:13 | -16.62683 | -49.22976 | 2459 ft | 6 kts | 185° |
| 2026-04-25 17:13 | -16.62726 | -49.22945 | 2456 ft | 5 kts | 124° |
| 2026-04-25 17:13 | -16.62730 | -49.22937 | 2457 ft | 0 kts | 120° |
| 2026-04-25 17:14 | -16.62734 | -49.22930 | 2463 ft | 10 kts | 120° |
| 2026-04-25 17:14 | -16.62905 | -49.22625 | 2462 ft | 87 kts | 120° |
| 2026-04-25 17:14 | -16.63331 | -49.21867 | 2448 ft | 148 kts | 120° |
| 2026-04-25 17:14 | -16.63884 | -49.20892 | 2872 ft | 155 kts | 121° |
| 2026-04-25 17:15 | -16.64421 | -49.19909 | 3456 ft | 157 kts | 121° |
| 2026-04-25 17:15 | -16.64991 | -49.18890 | 3871 ft | 173 kts | 121° |
| 2026-04-25 17:15 | -16.65641 | -49.17734 | 4193 ft | 197 kts | 121° |
| 2026-04-25 17:15 | -16.66428 | -49.16419 | 4495 ft | 225 kts | 130° |
| 2026-04-25 17:16 | -16.67761 | -49.15567 | 5060 ft | 238 kts | 170° |
| 2026-04-25 17:16 | -16.69452 | -49.15778 | 5544 ft | 259 kts | 208° |
| 2026-04-25 17:16 | -16.70790 | -49.17065 | 6126 ft | 269 kts | 238° |
| 2026-04-25 17:16 | -16.71838 | -49.18696 | 6874 ft | 274 kts | 226° |
| 2026-04-25 17:17 | -16.73404 | -49.19846 | 7593 ft | 280 kts | 207° |
| 2026-04-25 17:17 | -16.75226 | -49.20611 | 7845 ft | 283 kts | 199° |
| 2026-04-25 17:17 | -16.77110 | -49.21199 | 7903 ft | 282 kts | 197° |
| 2026-04-25 17:17 | -16.78999 | -49.21749 | 7912 ft | 282 kts | 195° |
| 2026-04-25 17:18 | -16.80944 | -49.21856 | 7911 ft | 283 kts | 168° |
| 2026-04-25 17:18 | -16.82734 | -49.21017 | 7905 ft | 285 kts | 141° |
| 2026-04-25 17:18 | -16.83941 | -49.19397 | 8028 ft | 291 kts | 111° |
| 2026-04-25 17:18 | -16.84214 | -49.17322 | 8776 ft | 293 kts | 82° |
| 2026-04-25 17:19 | -16.83470 | -49.15371 | 9505 ft | 294 kts | 50° |
| 2026-04-25 17:19 | -16.81855 | -49.14099 | 10172 ft | 297 kts | 20° |
| 2026-04-25 17:19 | -16.79774 | -49.13673 | 10374 ft | 317 kts | 4° |
| 2026-04-25 17:19 | -16.77497 | -49.13525 | 10599 ft | 336 kts | 1° |
| 2026-04-25 17:20 | -16.75157 | -49.13193 | 11153 ft | 343 kts | 14° |
| 2026-04-25 17:20 | -16.72946 | -49.12223 | 11780 ft | 349 kts | 31° |
| 2026-04-25 17:20 | -16.71008 | -49.10678 | 12417 ft | 352 kts | 39° |
| 2026-04-25 17:20 | -16.69129 | -49.09029 | 13048 ft | 356 kts | 40° |
| 2026-04-25 17:21 | -16.67240 | -49.07345 | 13669 ft | 359 kts | 40° |
| 2026-04-25 17:21 | -16.65334 | -49.05641 | 14269 ft | 362 kts | 40° |
| 2026-04-25 17:21 | -16.63410 | -49.03926 | 14838 ft | 366 kts | 40° |
| 2026-04-25 17:21 | -16.61468 | -49.02205 | 15394 ft | 369 kts | 39° |
| 2026-04-25 17:22 | -16.59502 | -49.00469 | 15956 ft | 372 kts | 39° |
| 2026-04-25 17:22 | -16.58192 | -48.99315 | 16317 ft | 374 kts | 39° |
| 2026-04-25 17:22 | -16.55519 | -48.96964 | 17036 ft | 378 kts | 39° |
| 2026-04-25 17:22 | -16.53507 | -48.95199 | 17555 ft | 381 kts | 39° |
| 2026-04-25 17:23 | -16.51464 | -48.93406 | 18086 ft | 384 kts | 39° |
| 2026-04-25 17:23 | -16.49405 | -48.91598 | 18622 ft | 387 kts | 39° |
| 2026-04-25 17:23 | -16.47339 | -48.89783 | 19156 ft | 390 kts | 39° |
| 2026-04-25 17:23 | -16.45248 | -48.87948 | 19693 ft | 394 kts | 39° |
| 2026-04-25 17:24 | -16.43148 | -48.86104 | 20214 ft | 397 kts | 39° |
| 2026-04-25 17:24 | -16.41028 | -48.84243 | 20725 ft | 400 kts | 39° |
| 2026-04-25 17:24 | -16.38927 | -48.82332 | 21211 ft | 403 kts | 44° |
| 2026-04-25 17:24 | -16.37109 | -48.80093 | 21685 ft | 407 kts | 55° |
| 2026-04-25 17:25 | -16.35637 | -48.77567 | 22152 ft | 410 kts | 60° |
| 2026-04-25 17:25 | -16.34215 | -48.74995 | 22598 ft | 412 kts | 59° |
| 2026-04-25 17:25 | -16.32772 | -48.72394 | 23047 ft | 415 kts | 59° |
| 2026-04-25 17:25 | -16.31320 | -48.69787 | 23471 ft | 418 kts | 59° |
| 2026-04-25 17:26 | -16.29854 | -48.67164 | 23885 ft | 420 kts | 59° |
| 2026-04-25 17:26 | -16.28383 | -48.64535 | 24287 ft | 422 kts | 59° |
| 2026-04-25 17:26 | -16.26897 | -48.61879 | 24682 ft | 425 kts | 59° |
| 2026-04-25 17:26 | -16.25427 | -48.59256 | 25048 ft | 428 kts | 59° |
| 2026-04-25 17:27 | -16.23923 | -48.56572 | 25413 ft | 430 kts | 59° |
| 2026-04-25 17:27 | -16.22415 | -48.53876 | 25770 ft | 432 kts | 59° |
| 2026-04-25 17:27 | -16.20896 | -48.51166 | 26127 ft | 434 kts | 59° |
| 2026-04-25 17:27 | -16.20403 | -48.50287 | 26238 ft | 435 kts | 59° |
| 2026-04-25 17:28 | -16.17857 | -48.45746 | 26790 ft | 439 kts | 59° |
| 2026-04-25 17:28 | -16.16327 | -48.43018 | 27107 ft | 441 kts | 59° |
| 2026-04-25 17:28 | -16.14779 | -48.40252 | 27428 ft | 444 kts | 59° |
| 2026-04-25 17:28 | -16.13223 | -48.37470 | 27749 ft | 446 kts | 59° |
| 2026-04-25 17:29 | -16.11676 | -48.34707 | 28062 ft | 448 kts | 59° |
| 2026-04-25 17:29 | -16.10085 | -48.31876 | 28379 ft | 450 kts | 59° |
| 2026-04-25 17:29 | -16.08503 | -48.29062 | 28673 ft | 452 kts | 59° |
| 2026-04-25 17:29 | -16.06916 | -48.26235 | 28980 ft | 454 kts | 59° |
| 2026-04-25 17:30 | -16.05321 | -48.23395 | 29271 ft | 456 kts | 59° |
| 2026-04-25 17:30 | -16.03720 | -48.20548 | 29644 ft | 456 kts | 59° |
| 2026-04-25 17:30 | -16.02123 | -48.17716 | 30053 ft | 455 kts | 59° |
| 2026-04-25 17:30 | -16.00522 | -48.14879 | 30443 ft | 454 kts | 59° |
| 2026-04-25 17:31 | -15.98926 | -48.12048 | 30843 ft | 453 kts | 59° |
| 2026-04-25 17:31 | -15.97340 | -48.09232 | 31235 ft | 452 kts | 59° |
| 2026-04-25 17:31 | -15.95748 | -48.06402 | 31599 ft | 452 kts | 59° |
| 2026-04-25 17:31 | -15.94162 | -48.03583 | 31955 ft | 452 kts | 59° |
| 2026-04-25 17:32 | -15.92569 | -48.00759 | 32324 ft | 452 kts | 59° |
| 2026-04-25 17:32 | -15.90985 | -47.97946 | 32702 ft | 451 kts | 59° |
| 2026-04-25 17:32 | -15.89401 | -47.95136 | 33081 ft | 450 kts | 59° |
| 2026-04-25 17:32 | -15.87820 | -47.92339 | 33456 ft | 449 kts | 59° |
| 2026-04-25 17:33 | -15.86240 | -47.89546 | 33820 ft | 448 kts | 59° |
| 2026-04-25 17:33 | -15.84664 | -47.86759 | 34166 ft | 447 kts | 59° |
| 2026-04-25 17:33 | -15.83091 | -47.83978 | 34498 ft | 446 kts | 59° |
| 2026-04-25 17:33 | -15.81517 | -47.81202 | 34800 ft | 446 kts | 59° |
| 2026-04-25 17:34 | -15.79945 | -47.78427 | 35101 ft | 445 kts | 59° |
| 2026-04-25 17:34 | -15.78377 | -47.75649 | 35390 ft | 445 kts | 59° |
| 2026-04-25 17:34 | -15.76814 | -47.72886 | 35675 ft | 444 kts | 59° |
| 2026-04-25 17:34 | -15.75250 | -47.70127 | 35941 ft | 443 kts | 59° |
| 2026-04-25 17:35 | -15.73687 | -47.67369 | 36197 ft | 443 kts | 59° |
| 2026-04-25 17:35 | -15.72126 | -47.64611 | 36437 ft | 443 kts | 59° |
| 2026-04-25 17:35 | -15.70570 | -47.61862 | 36650 ft | 443 kts | 59° |
| 2026-04-25 17:35 | -15.69006 | -47.59103 | 36847 ft | 443 kts | 59° |
| 2026-04-25 17:36 | -15.67441 | -47.56345 | 36983 ft | 445 kts | 59° |
| 2026-04-25 17:36 | -15.65886 | -47.53603 | 37012 ft | 449 kts | 59° |
| 2026-04-25 17:36 | -15.62671 | -47.47940 | 37009 ft | 455 kts | 59° |
| 2026-04-25 17:37 | -15.59456 | -47.42280 | 37009 ft | 455 kts | 59° |
| 2026-04-25 17:37 | -15.56237 | -47.36620 | 37009 ft | 455 kts | 59° |
| 2026-04-25 17:38 | -15.54107 | -47.32877 | 37009 ft | 455 kts | 59° |
| 2026-04-25 17:38 | -15.49796 | -47.25312 | 37017 ft | 456 kts | 59° |
| 2026-04-25 17:39 | -15.46600 | -47.19700 | 37023 ft | 456 kts | 59° |
| 2026-04-25 17:39 | -15.43390 | -47.14070 | 37023 ft | 456 kts | 59° |
| 2026-04-25 17:40 | -15.40157 | -47.08401 | 37023 ft | 456 kts | 59° |
| 2026-04-25 17:40 | -15.36902 | -47.02711 | 37026 ft | 456 kts | 59° |
| 2026-04-25 17:41 | -15.33691 | -46.97099 | 37023 ft | 456 kts | 59° |
| 2026-04-25 17:41 | -15.30461 | -46.91457 | 37021 ft | 456 kts | 59° |
| 2026-04-25 17:42 | -15.27224 | -46.85807 | 37017 ft | 456 kts | 59° |
| 2026-04-25 17:42 | -15.23994 | -46.80163 | 37016 ft | 456 kts | 59° |
| 2026-04-25 17:43 | -15.20750 | -46.74496 | 37018 ft | 457 kts | 59° |
| 2026-04-25 17:43 | -15.17509 | -46.68843 | 37021 ft | 457 kts | 59° |
| 2026-04-25 17:44 | -15.14258 | -46.63184 | 37021 ft | 457 kts | 59° |
| 2026-04-25 17:44 | -15.11003 | -46.57529 | 37024 ft | 457 kts | 59° |
| 2026-04-25 17:45 | -15.08827 | -46.53746 | 37026 ft | 457 kts | 59° |
| 2026-04-25 17:45 | -15.04503 | -46.46232 | 37023 ft | 457 kts | 59° |
| 2026-04-25 17:46 | -15.01255 | -46.40584 | 37021 ft | 457 kts | 59° |
| 2026-04-25 17:46 | -14.98002 | -46.34926 | 37022 ft | 458 kts | 59° |
| 2026-04-25 17:47 | -14.94733 | -46.29274 | 37026 ft | 458 kts | 59° |
| 2026-04-25 17:47 | -14.91475 | -46.23611 | 37027 ft | 458 kts | 62° |
| 2026-04-25 17:48 | -14.88234 | -46.14347 | 37027 ft | 458 kts | 72° |
| 2026-04-25 17:49 | -14.86331 | -46.08105 | 37027 ft | 458 kts | 72° |
| 2026-04-25 17:49 | -14.84412 | -46.01834 | 37025 ft | 458 kts | 72° |
| 2026-04-25 17:50 | -14.82480 | -45.95555 | 37025 ft | 458 kts | 72° |
| 2026-04-25 17:50 | -14.80561 | -45.89296 | 37024 ft | 458 kts | 72° |
| 2026-04-25 17:51 | -14.78630 | -45.83002 | 37025 ft | 458 kts | 72° |
| 2026-04-25 17:51 | -14.76702 | -45.76716 | 37026 ft | 458 kts | 72° |
| 2026-04-25 17:52 | -14.75102 | -45.71515 | 37021 ft | 458 kts | 72° |
| 2026-04-25 17:52 | -14.73163 | -45.65212 | 37026 ft | 458 kts | 72° |
| 2026-04-25 17:53 | -14.71221 | -45.58912 | 37023 ft | 458 kts | 72° |
| 2026-04-25 17:53 | -14.69290 | -45.52661 | 37025 ft | 458 kts | 72° |
| 2026-04-25 17:54 | -14.67360 | -45.46421 | 37032 ft | 458 kts | 72° |
| 2026-04-25 17:54 | -14.65443 | -45.40189 | 37027 ft | 458 kts | 72° |
| 2026-04-25 17:55 | -14.63492 | -45.33881 | 37012 ft | 458 kts | 72° |
| 2026-04-25 17:55 | -14.61558 | -45.27670 | 37019 ft | 458 kts | 72° |
| 2026-04-25 17:56 | -14.59605 | -45.21364 | 37023 ft | 458 kts | 72° |
| 2026-04-25 17:56 | -14.57663 | -45.15099 | 37031 ft | 458 kts | 72° |
| 2026-04-25 17:57 | -14.55731 | -45.08892 | 37026 ft | 458 kts | 72° |
| 2026-04-25 17:57 | -14.53795 | -45.02680 | 37030 ft | 458 kts | 72° |
| 2026-04-25 17:58 | -14.52181 | -44.97478 | 37026 ft | 457 kts | 72° |